sensor_id;sensor_type;location;lat;lon;timestamp;P1;durP1;ratioP1;P2;durP2;ratioP2
27201;SDS011;14717;46.924;15.474;2022-11-27T00:01:22;17.55;;;8.68;;
27201;SDS011;14717;46.924;15.474;2022-11-27T00:03:49;17.65;;;8.73;;
27201;SDS011;14717;46.924;15.474;2022-11-27T00:06:17;16.10;;;8.48;;
27201;SDS011;14717;46.924;15.474;2022-11-27T00:08:44;17.95;;;8.57;;
27201;SDS011;14717;46.924;15.474;2022-11-27T00:11:12;16.65;;;8.10;;
27201;SDS011;14717;46.924;15.474;2022-11-27T00:13:40;15.95;;;7.63;;
27201;SDS011;14717;46.924;15.474;2022-11-27T00:16:06;15.10;;;8.48;;
27201;SDS011;14717;46.924;15.474;2022-11-27T00:18:32;14.30;;;7.88;;
27201;SDS011;14717;46.924;15.474;2022-11-27T00:21:02;16.33;;;8.85;;
27201;SDS011;14717;46.924;15.474;2022-11-27T00:23:29;19.10;;;8.23;;
27201;SDS011;14717;46.924;15.474;2022-11-27T00:25:54;15.63;;;7.95;;
27201;SDS011;14717;46.924;15.474;2022-11-27T00:28:19;14.25;;;8.23;;
27201;SDS011;14717;46.924;15.474;2022-11-27T00:30:45;15.13;;;8.35;;
27201;SDS011;14717;46.924;15.474;2022-11-27T00:33:11;13.27;;;8.70;;
27201;SDS011;14717;46.924;15.474;2022-11-27T00:35:37;15.07;;;8.88;;
27201;SDS011;14717;46.924;15.474;2022-11-27T00:38:03;19.52;;;9.82;;
27201;SDS011;14717;46.924;15.474;2022-11-27T00:40:28;20.50;;;11.13;;
27201;SDS011;14717;46.924;15.474;2022-11-27T00:42:54;21.73;;;11.55;;
27201;SDS011;14717;46.924;15.474;2022-11-27T00:45:19;19.00;;;11.07;;
27201;SDS011;14717;46.924;15.474;2022-11-27T00:47:45;21.05;;;10.32;;
27201;SDS011;14717;46.924;15.474;2022-11-27T00:50:10;19.20;;;11.05;;
27201;SDS011;14717;46.924;15.474;2022-11-27T00:52:35;19.70;;;10.75;;
27201;SDS011;14717;46.924;15.474;2022-11-27T00:55:01;18.73;;;10.73;;
27201;SDS011;14717;46.924;15.474;2022-11-27T00:57:26;18.35;;;9.95;;
27201;SDS011;14717;46.924;15.474;2022-11-27T00:59:51;16.00;;;9.40;;
27201;SDS011;14717;46.924;15.474;2022-11-27T01:02:17;17.05;;;9.63;;
27201;SDS011;14717;46.924;15.474;2022-11-27T01:04:46;16.88;;;8.93;;
27201;SDS011;14717;46.924;15.474;2022-11-27T01:07:12;16.15;;;9.50;;
27201;SDS011;14717;46.924;15.474;2022-11-27T01:09:37;16.90;;;10.05;;
27201;SDS011;14717;46.924;15.474;2022-11-27T01:12:03;14.15;;;8.93;;
27201;SDS011;14717;46.924;15.474;2022-11-27T01:14:28;17.40;;;9.25;;
27201;SDS011;14717;46.924;15.474;2022-11-27T01:16:54;14.55;;;8.27;;
27201;SDS011;14717;46.924;15.474;2022-11-27T01:19:19;16.77;;;8.77;;
27201;SDS011;14717;46.924;15.474;2022-11-27T01:21:45;15.63;;;8.85;;
27201;SDS011;14717;46.924;15.474;2022-11-27T01:24:11;15.23;;;8.48;;
27201;SDS011;14717;46.924;15.474;2022-11-27T01:26:38;15.68;;;8.77;;
27201;SDS011;14717;46.924;15.474;2022-11-27T01:29:04;16.95;;;8.48;;
27201;SDS011;14717;46.924;15.474;2022-11-27T01:31:29;15.48;;;8.65;;
27201;SDS011;14717;46.924;15.474;2022-11-27T01:33:57;15.32;;;8.48;;
27201;SDS011;14717;46.924;15.474;2022-11-27T01:36:24;15.90;;;8.63;;
27201;SDS011;14717;46.924;15.474;2022-11-27T01:38:50;18.95;;;8.75;;
27201;SDS011;14717;46.924;15.474;2022-11-27T01:41:17;13.90;;;8.00;;
27201;SDS011;14717;46.924;15.474;2022-11-27T01:43:52;18.38;;;8.95;;
27201;SDS011;14717;46.924;15.474;2022-11-27T01:46:47;12.98;;;8.25;;
27201;SDS011;14717;46.924;15.474;2022-11-27T01:57:21;15.52;;;8.30;;
27201;SDS011;14717;46.924;15.474;2022-11-27T01:59:50;15.65;;;8.73;;
27201;SDS011;14717;46.924;15.474;2022-11-27T02:02:17;14.75;;;8.55;;
27201;SDS011;14717;46.924;15.474;2022-11-27T02:04:42;13.15;;;7.47;;
27201;SDS011;14717;46.924;15.474;2022-11-27T02:07:08;16.25;;;8.30;;
27201;SDS011;14717;46.924;15.474;2022-11-27T02:09:33;15.82;;;7.63;;
27201;SDS011;14717;46.924;15.474;2022-11-27T02:12:21;13.10;;;7.85;;
27201;SDS011;14717;46.924;15.474;2022-11-27T02:15:04;13.82;;;7.10;;
27201;SDS011;14717;46.924;15.474;2022-11-27T02:17:54;14.20;;;7.68;;
27201;SDS011;14717;46.924;15.474;2022-11-27T02:20:42;11.77;;;7.18;;
27201;SDS011;14717;46.924;15.474;2022-11-27T02:30:45;12.93;;;6.78;;
27201;SDS011;14717;46.924;15.474;2022-11-27T02:33:16;12.23;;;6.38;;
27201;SDS011;14717;46.924;15.474;2022-11-27T02:38:22;12.68;;;6.05;;
27201;SDS011;14717;46.924;15.474;2022-11-27T02:41:00;10.63;;;5.57;;
27201;SDS011;14717;46.924;15.474;2022-11-27T02:43:29;14.68;;;6.90;;
27201;SDS011;14717;46.924;15.474;2022-11-27T02:45:58;10.50;;;5.78;;
27201;SDS011;14717;46.924;15.474;2022-11-27T02:48:29;14.32;;;7.22;;
27201;SDS011;14717;46.924;15.474;2022-11-27T02:50:58;12.20;;;6.75;;
27201;SDS011;14717;46.924;15.474;2022-11-27T02:53:58;13.45;;;6.72;;
27201;SDS011;14717;46.924;15.474;2022-11-27T02:56:22;15.70;;;8.02;;
27201;SDS011;14717;46.924;15.474;2022-11-27T02:58:50;16.38;;;9.30;;
27201;SDS011;14717;46.924;15.474;2022-11-27T03:01:18;16.80;;;8.52;;
27201;SDS011;14717;46.924;15.474;2022-11-27T03:03:48;20.02;;;10.68;;
27201;SDS011;14717;46.924;15.474;2022-11-27T03:06:19;18.88;;;10.23;;
27201;SDS011;14717;46.924;15.474;2022-11-27T03:08:55;16.90;;;9.73;;
27201;SDS011;14717;46.924;15.474;2022-11-27T03:11:24;24.15;;;13.20;;
27201;SDS011;14717;46.924;15.474;2022-11-27T03:13:52;21.67;;;11.48;;
27201;SDS011;14717;46.924;15.474;2022-11-27T03:21:58;26.88;;;13.43;;
27201;SDS011;14717;46.924;15.474;2022-11-27T03:24:26;24.65;;;12.15;;
27201;SDS011;14717;46.924;15.474;2022-11-27T03:26:53;18.05;;;9.35;;
27201;SDS011;14717;46.924;15.474;2022-11-27T03:29:28;20.25;;;11.20;;
27201;SDS011;14717;46.924;15.474;2022-11-27T03:31:59;20.65;;;11.10;;
27201;SDS011;14717;46.924;15.474;2022-11-27T03:34:25;14.52;;;9.52;;
27201;SDS011;14717;46.924;15.474;2022-11-27T03:36:52;17.05;;;9.32;;
27201;SDS011;14717;46.924;15.474;2022-11-27T03:39:18;17.42;;;9.35;;
27201;SDS011;14717;46.924;15.474;2022-11-27T03:49:46;14.07;;;8.45;;
27201;SDS011;14717;46.924;15.474;2022-11-27T03:55:17;14.15;;;8.10;;
27201;SDS011;14717;46.924;15.474;2022-11-27T03:57:58;12.50;;;8.30;;
27201;SDS011;14717;46.924;15.474;2022-11-27T04:00:32;13.73;;;8.10;;
27201;SDS011;14717;46.924;15.474;2022-11-27T04:03:01;12.02;;;7.70;;
27201;SDS011;14717;46.924;15.474;2022-11-27T04:05:28;13.95;;;8.52;;
27201;SDS011;14717;46.924;15.474;2022-11-27T04:07:54;15.73;;;8.02;;
27201;SDS011;14717;46.924;15.474;2022-11-27T04:10:19;15.77;;;8.52;;
27201;SDS011;14717;46.924;15.474;2022-11-27T04:12:45;14.55;;;7.13;;
27201;SDS011;14717;46.924;15.474;2022-11-27T04:15:10;11.73;;;6.72;;
27201;SDS011;14717;46.924;15.474;2022-11-27T04:17:36;11.93;;;6.68;;
27201;SDS011;14717;46.924;15.474;2022-11-27T04:20:02;9.10;;;5.55;;
27201;SDS011;14717;46.924;15.474;2022-11-27T04:22:29;12.85;;;6.28;;
27201;SDS011;14717;46.924;15.474;2022-11-27T04:24:54;11.80;;;6.45;;
27201;SDS011;14717;46.924;15.474;2022-11-27T04:27:19;10.25;;;5.72;;
27201;SDS011;14717;46.924;15.474;2022-11-27T04:29:45;13.93;;;6.07;;
27201;SDS011;14717;46.924;15.474;2022-11-27T04:32:10;12.73;;;6.65;;
27201;SDS011;14717;46.924;15.474;2022-11-27T04:34:35;11.23;;;5.95;;
27201;SDS011;14717;46.924;15.474;2022-11-27T04:37:01;11.52;;;6.05;;
27201;SDS011;14717;46.924;15.474;2022-11-27T04:39:26;11.88;;;6.07;;
27201;SDS011;14717;46.924;15.474;2022-11-27T04:41:51;10.57;;;5.85;;
27201;SDS011;14717;46.924;15.474;2022-11-27T04:44:17;10.82;;;5.80;;
27201;SDS011;14717;46.924;15.474;2022-11-27T04:46:43;12.30;;;5.50;;
27201;SDS011;14717;46.924;15.474;2022-11-27T04:49:09;9.65;;;5.63;;
27201;SDS011;14717;46.924;15.474;2022-11-27T04:51:35;11.45;;;5.28;;
27201;SDS011;14717;46.924;15.474;2022-11-27T04:54:00;8.48;;;5.03;;
27201;SDS011;14717;46.924;15.474;2022-11-27T04:56:26;10.57;;;5.70;;
27201;SDS011;14717;46.924;15.474;2022-11-27T04:58:51;9.00;;;5.03;;
27201;SDS011;14717;46.924;15.474;2022-11-27T05:01:16;11.57;;;5.00;;
27201;SDS011;14717;46.924;15.474;2022-11-27T05:03:42;10.68;;;5.38;;
27201;SDS011;14717;46.924;15.474;2022-11-27T05:06:07;8.82;;;5.00;;
27201;SDS011;14717;46.924;15.474;2022-11-27T05:08:33;13.23;;;5.50;;
27201;SDS011;14717;46.924;15.474;2022-11-27T05:11:02;11.38;;;6.38;;
27201;SDS011;14717;46.924;15.474;2022-11-27T05:13:30;9.07;;;5.40;;
27201;SDS011;14717;46.924;15.474;2022-11-27T05:15:56;12.30;;;5.63;;
27201;SDS011;14717;46.924;15.474;2022-11-27T05:18:21;11.02;;;5.85;;
27201;SDS011;14717;46.924;15.474;2022-11-27T05:20:46;9.85;;;4.80;;
27201;SDS011;14717;46.924;15.474;2022-11-27T05:23:12;11.18;;;5.40;;
27201;SDS011;14717;46.924;15.474;2022-11-27T05:25:37;9.07;;;5.85;;
27201;SDS011;14717;46.924;15.474;2022-11-27T05:28:03;12.85;;;6.13;;
27201;SDS011;14717;46.924;15.474;2022-11-27T05:30:28;10.52;;;6.10;;
27201;SDS011;14717;46.924;15.474;2022-11-27T05:32:54;9.63;;;5.25;;
27201;SDS011;14717;46.924;15.474;2022-11-27T05:35:19;9.30;;;5.00;;
27201;SDS011;14717;46.924;15.474;2022-11-27T05:37:44;7.88;;;4.60;;
27201;SDS011;14717;46.924;15.474;2022-11-27T05:40:10;9.43;;;5.32;;
27201;SDS011;14717;46.924;15.474;2022-11-27T05:42:36;10.52;;;5.90;;
27201;SDS011;14717;46.924;15.474;2022-11-27T05:45:03;10.38;;;5.13;;
27201;SDS011;14717;46.924;15.474;2022-11-27T05:47:29;9.25;;;4.53;;
27201;SDS011;14717;46.924;15.474;2022-11-27T05:49:54;9.02;;;4.25;;
27201;SDS011;14717;46.924;15.474;2022-11-27T05:52:19;9.65;;;3.78;;
27201;SDS011;14717;46.924;15.474;2022-11-27T05:54:45;8.38;;;4.55;;
27201;SDS011;14717;46.924;15.474;2022-11-27T05:57:10;6.65;;;3.70;;
27201;SDS011;14717;46.924;15.474;2022-11-27T05:59:35;5.30;;;3.67;;
27201;SDS011;14717;46.924;15.474;2022-11-27T06:02:01;8.23;;;4.30;;
27201;SDS011;14717;46.924;15.474;2022-11-27T06:04:26;10.25;;;4.00;;
27201;SDS011;14717;46.924;15.474;2022-11-27T06:06:51;8.27;;;5.22;;
27201;SDS011;14717;46.924;15.474;2022-11-27T06:09:17;6.53;;;4.15;;
27201;SDS011;14717;46.924;15.474;2022-11-27T06:11:42;7.45;;;3.53;;
27201;SDS011;14717;46.924;15.474;2022-11-27T06:14:08;6.55;;;3.05;;
27201;SDS011;14717;46.924;15.474;2022-11-27T06:16:34;6.93;;;3.38;;
27201;SDS011;14717;46.924;15.474;2022-11-27T06:18:59;5.43;;;2.88;;
27201;SDS011;14717;46.924;15.474;2022-11-27T06:21:24;6.47;;;3.15;;
27201;SDS011;14717;46.924;15.474;2022-11-27T06:23:53;5.35;;;3.30;;
27201;SDS011;14717;46.924;15.474;2022-11-27T06:26:21;7.35;;;3.38;;
27201;SDS011;14717;46.924;15.474;2022-11-27T06:28:52;5.65;;;3.28;;
27201;SDS011;14717;46.924;15.474;2022-11-27T06:31:19;5.95;;;2.75;;
27201;SDS011;14717;46.924;15.474;2022-11-27T06:33:47;6.43;;;3.22;;
27201;SDS011;14717;46.924;15.474;2022-11-27T06:36:14;12.65;;;3.88;;
27201;SDS011;14717;46.924;15.474;2022-11-27T06:38:40;7.00;;;3.55;;
27201;SDS011;14717;46.924;15.474;2022-11-27T06:41:06;8.30;;;4.15;;
27201;SDS011;14717;46.924;15.474;2022-11-27T06:43:36;6.38;;;3.53;;
27201;SDS011;14717;46.924;15.474;2022-11-27T06:46:02;5.72;;;3.72;;
27201;SDS011;14717;46.924;15.474;2022-11-27T06:48:29;8.55;;;4.10;;
27201;SDS011;14717;46.924;15.474;2022-11-27T06:51:01;8.05;;;4.80;;
27201;SDS011;14717;46.924;15.474;2022-11-27T06:53:28;12.15;;;5.60;;
27201;SDS011;14717;46.924;15.474;2022-11-27T06:55:55;11.85;;;5.45;;
27201;SDS011;14717;46.924;15.474;2022-11-27T06:58:21;8.38;;;4.63;;
27201;SDS011;14717;46.924;15.474;2022-11-27T07:00:46;10.30;;;5.47;;
27201;SDS011;14717;46.924;15.474;2022-11-27T07:03:12;10.02;;;5.60;;
27201;SDS011;14717;46.924;15.474;2022-11-27T07:05:37;8.48;;;4.82;;
27201;SDS011;14717;46.924;15.474;2022-11-27T07:08:03;12.82;;;5.63;;
27201;SDS011;14717;46.924;15.474;2022-11-27T07:10:30;12.10;;;5.10;;
27201;SDS011;14717;46.924;15.474;2022-11-27T07:12:57;9.60;;;5.75;;
27201;SDS011;14717;46.924;15.474;2022-11-27T07:15:22;13.82;;;5.97;;
27201;SDS011;14717;46.924;15.474;2022-11-27T07:17:48;9.75;;;5.20;;
27201;SDS011;14717;46.924;15.474;2022-11-27T07:20:13;11.25;;;5.88;;
27201;SDS011;14717;46.924;15.474;2022-11-27T07:22:39;10.15;;;5.40;;
27201;SDS011;14717;46.924;15.474;2022-11-27T07:25:04;11.63;;;6.22;;
27201;SDS011;14717;46.924;15.474;2022-11-27T07:27:30;10.13;;;5.72;;
27201;SDS011;14717;46.924;15.474;2022-11-27T07:29:55;10.48;;;6.00;;
27201;SDS011;14717;46.924;15.474;2022-11-27T07:32:20;13.38;;;6.20;;
27201;SDS011;14717;46.924;15.474;2022-11-27T07:34:46;12.35;;;5.97;;
27201;SDS011;14717;46.924;15.474;2022-11-27T07:37:11;12.07;;;6.45;;
27201;SDS011;14717;46.924;15.474;2022-11-27T07:39:36;12.85;;;6.82;;
27201;SDS011;14717;46.924;15.474;2022-11-27T07:42:02;12.57;;;5.75;;
27201;SDS011;14717;46.924;15.474;2022-11-27T07:44:27;12.57;;;6.47;;
27201;SDS011;14717;46.924;15.474;2022-11-27T07:46:53;8.93;;;5.22;;
27201;SDS011;14717;46.924;15.474;2022-11-27T07:49:18;9.27;;;5.70;;
27201;SDS011;14717;46.924;15.474;2022-11-27T07:51:44;12.00;;;6.32;;
27201;SDS011;14717;46.924;15.474;2022-11-27T07:54:09;10.68;;;5.50;;
27201;SDS011;14717;46.924;15.474;2022-11-27T07:56:34;11.80;;;5.13;;
27201;SDS011;14717;46.924;15.474;2022-11-27T07:59:00;7.35;;;4.25;;
27201;SDS011;14717;46.924;15.474;2022-11-27T08:01:25;7.35;;;3.85;;
27201;SDS011;14717;46.924;15.474;2022-11-27T08:03:51;6.03;;;3.17;;
27201;SDS011;14717;46.924;15.474;2022-11-27T08:06:17;6.55;;;3.40;;
27201;SDS011;14717;46.924;15.474;2022-11-27T08:08:45;8.32;;;3.58;;
27201;SDS011;14717;46.924;15.474;2022-11-27T08:11:15;5.50;;;3.13;;
27201;SDS011;14717;46.924;15.474;2022-11-27T08:13:55;5.38;;;3.15;;
27201;SDS011;14717;46.924;15.474;2022-11-27T08:16:22;6.35;;;2.92;;
27201;SDS011;14717;46.924;15.474;2022-11-27T08:18:48;6.18;;;3.13;;
27201;SDS011;14717;46.924;15.474;2022-11-27T08:21:13;5.70;;;2.80;;
27201;SDS011;14717;46.924;15.474;2022-11-27T08:23:39;6.45;;;3.03;;
27201;SDS011;14717;46.924;15.474;2022-11-27T08:26:07;7.03;;;3.22;;
27201;SDS011;14717;46.924;15.474;2022-11-27T08:28:35;5.95;;;3.00;;
27201;SDS011;14717;46.924;15.474;2022-11-27T08:31:01;6.80;;;3.67;;
27201;SDS011;14717;46.924;15.474;2022-11-27T08:33:28;7.57;;;4.18;;
27201;SDS011;14717;46.924;15.474;2022-11-27T08:35:54;6.00;;;3.50;;
27201;SDS011;14717;46.924;15.474;2022-11-27T08:38:19;6.75;;;3.75;;
27201;SDS011;14717;46.924;15.474;2022-11-27T08:40:52;8.05;;;4.00;;
27201;SDS011;14717;46.924;15.474;2022-11-27T08:45:50;8.98;;;4.28;;
27201;SDS011;14717;46.924;15.474;2022-11-27T08:48:16;11.10;;;5.65;;
27201;SDS011;14717;46.924;15.474;2022-11-27T08:50:41;12.98;;;6.95;;
27201;SDS011;14717;46.924;15.474;2022-11-27T08:53:07;13.00;;;7.03;;
27201;SDS011;14717;46.924;15.474;2022-11-27T08:55:32;12.48;;;6.68;;
27201;SDS011;14717;46.924;15.474;2022-11-27T08:57:58;12.38;;;7.35;;
27201;SDS011;14717;46.924;15.474;2022-11-27T09:00:23;13.48;;;7.85;;
27201;SDS011;14717;46.924;15.474;2022-11-27T09:02:49;16.17;;;7.93;;
27201;SDS011;14717;46.924;15.474;2022-11-27T09:05:14;11.98;;;7.25;;
27201;SDS011;14717;46.924;15.474;2022-11-27T09:07:39;14.77;;;8.40;;
27201;SDS011;14717;46.924;15.474;2022-11-27T09:10:05;15.10;;;7.85;;
27201;SDS011;14717;46.924;15.474;2022-11-27T09:12:33;13.50;;;8.25;;
27201;SDS011;14717;46.924;15.474;2022-11-27T09:14:59;11.98;;;7.63;;
27201;SDS011;14717;46.924;15.474;2022-11-27T09:17:24;11.65;;;7.15;;
27201;SDS011;14717;46.924;15.474;2022-11-27T09:19:50;12.23;;;7.47;;
27201;SDS011;14717;46.924;15.474;2022-11-27T09:22:15;12.30;;;6.82;;
27201;SDS011;14717;46.924;15.474;2022-11-27T09:24:40;12.65;;;6.82;;
27201;SDS011;14717;46.924;15.474;2022-11-27T09:27:06;11.95;;;6.82;;
27201;SDS011;14717;46.924;15.474;2022-11-27T09:29:32;14.05;;;7.40;;
27201;SDS011;14717;46.924;15.474;2022-11-27T09:31:58;11.95;;;7.53;;
27201;SDS011;14717;46.924;15.474;2022-11-27T09:34:24;11.30;;;7.43;;
27201;SDS011;14717;46.924;15.474;2022-11-27T09:36:50;11.98;;;6.72;;
27201;SDS011;14717;46.924;15.474;2022-11-27T09:39:15;14.02;;;7.75;;
27201;SDS011;14717;46.924;15.474;2022-11-27T09:41:53;16.58;;;7.63;;
27201;SDS011;14717;46.924;15.474;2022-11-27T09:50:09;9.18;;;5.05;;
27201;SDS011;14717;46.924;15.474;2022-11-27T09:57:39;7.82;;;3.65;;
27201;SDS011;14717;46.924;15.474;2022-11-27T10:02:35;7.28;;;3.90;;
27201;SDS011;14717;46.924;15.474;2022-11-27T10:05:09;7.40;;;4.00;;
27201;SDS011;14717;46.924;15.474;2022-11-27T10:10:38;7.07;;;3.47;;
27201;SDS011;14717;46.924;15.474;2022-11-27T10:22:17;5.88;;;3.38;;
27201;SDS011;14717;46.924;15.474;2022-11-27T10:24:57;5.13;;;2.97;;
27201;SDS011;14717;46.924;15.474;2022-11-27T10:27:27;6.65;;;3.33;;
27201;SDS011;14717;46.924;15.474;2022-11-27T10:30:00;8.05;;;3.28;;
27201;SDS011;14717;46.924;15.474;2022-11-27T10:32:29;7.53;;;3.20;;
27201;SDS011;14717;46.924;15.474;2022-11-27T10:42:30;3.80;;;2.17;;
27201;SDS011;14717;46.924;15.474;2022-11-27T10:45:05;5.05;;;2.80;;
27201;SDS011;14717;46.924;15.474;2022-11-27T10:47:36;5.15;;;2.83;;
27201;SDS011;14717;46.924;15.474;2022-11-27T10:50:08;5.78;;;3.08;;
27201;SDS011;14717;46.924;15.474;2022-11-27T10:52:42;4.57;;;2.65;;
27201;SDS011;14717;46.924;15.474;2022-11-27T10:55:15;4.53;;;2.33;;
27201;SDS011;14717;46.924;15.474;2022-11-27T11:00:35;5.10;;;2.60;;
27201;SDS011;14717;46.924;15.474;2022-11-27T11:03:02;5.72;;;3.28;;
27201;SDS011;14717;46.924;15.474;2022-11-27T11:05:29;9.25;;;2.90;;
27201;SDS011;14717;46.924;15.474;2022-11-27T11:08:03;4.68;;;3.00;;
27201;SDS011;14717;46.924;15.474;2022-11-27T11:10:41;5.57;;;2.60;;
27201;SDS011;14717;46.924;15.474;2022-11-27T11:13:16;6.75;;;2.63;;
27201;SDS011;14717;46.924;15.474;2022-11-27T11:15:48;4.72;;;2.40;;
27201;SDS011;14717;46.924;15.474;2022-11-27T11:18:44;5.32;;;2.83;;
27201;SDS011;14717;46.924;15.474;2022-11-27T11:26:57;6.00;;;2.60;;
27201;SDS011;14717;46.924;15.474;2022-11-27T11:31:49;5.43;;;2.67;;
27201;SDS011;14717;46.924;15.474;2022-11-27T11:34:19;5.55;;;2.85;;
27201;SDS011;14717;46.924;15.474;2022-11-27T11:39:26;3.95;;;2.22;;
27201;SDS011;14717;46.924;15.474;2022-11-27T11:42:23;6.32;;;2.60;;
27201;SDS011;14717;46.924;15.474;2022-11-27T11:44:52;4.43;;;2.03;;
27201;SDS011;14717;46.924;15.474;2022-11-27T11:47:25;3.35;;;1.85;;
27201;SDS011;14717;46.924;15.474;2022-11-27T11:49:51;5.32;;;2.10;;
27201;SDS011;14717;46.924;15.474;2022-11-27T11:55:20;4.68;;;2.58;;
27201;SDS011;14717;46.924;15.474;2022-11-27T11:58:01;6.25;;;2.97;;
27201;SDS011;14717;46.924;15.474;2022-11-27T12:00:45;4.72;;;2.60;;
27201;SDS011;14717;46.924;15.474;2022-11-27T12:03:34;4.15;;;2.30;;
27201;SDS011;14717;46.924;15.474;2022-11-27T12:11:11;4.25;;;2.35;;
27201;SDS011;14717;46.924;15.474;2022-11-27T12:22:00;5.35;;;1.98;;
27201;SDS011;14717;46.924;15.474;2022-11-27T12:42:43;5.00;;;1.92;;
27201;SDS011;14717;46.924;15.474;2022-11-27T12:45:21;4.20;;;2.03;;
27201;SDS011;14717;46.924;15.474;2022-11-27T12:48:29;5.63;;;2.15;;
27201;SDS011;14717;46.924;15.474;2022-11-27T12:51:05;4.65;;;2.20;;
27201;SDS011;14717;46.924;15.474;2022-11-27T12:53:37;4.10;;;2.05;;
27201;SDS011;14717;46.924;15.474;2022-11-27T13:01:34;4.22;;;2.20;;
27201;SDS011;14717;46.924;15.474;2022-11-27T13:04:12;6.53;;;2.30;;
27201;SDS011;14717;46.924;15.474;2022-11-27T13:12:08;4.50;;;1.92;;
27201;SDS011;14717;46.924;15.474;2022-11-27T13:14:37;4.53;;;2.20;;
27201;SDS011;14717;46.924;15.474;2022-11-27T13:17:07;5.03;;;1.83;;
27201;SDS011;14717;46.924;15.474;2022-11-27T13:19:44;4.45;;;2.03;;
27201;SDS011;14717;46.924;15.474;2022-11-27T13:22:14;5.32;;;2.20;;
27201;SDS011;14717;46.924;15.474;2022-11-27T13:24:45;4.65;;;2.08;;
27201;SDS011;14717;46.924;15.474;2022-11-27T13:27:24;4.13;;;1.83;;
27201;SDS011;14717;46.924;15.474;2022-11-27T13:29:53;6.13;;;2.47;;
27201;SDS011;14717;46.924;15.474;2022-11-27T13:32:24;5.05;;;2.25;;
27201;SDS011;14717;46.924;15.474;2022-11-27T13:34:52;5.07;;;2.53;;
27201;SDS011;14717;46.924;15.474;2022-11-27T13:37:30;4.07;;;2.15;;
27201;SDS011;14717;46.924;15.474;2022-11-27T13:42:40;4.40;;;2.03;;
27201;SDS011;14717;46.924;15.474;2022-11-27T13:45:08;5.28;;;2.28;;
27201;SDS011;14717;46.924;15.474;2022-11-27T13:47:43;4.05;;;2.20;;
27201;SDS011;14717;46.924;15.474;2022-11-27T13:50:09;5.82;;;2.40;;
27201;SDS011;14717;46.924;15.474;2022-11-27T13:52:58;7.53;;;2.53;;
27201;SDS011;14717;46.924;15.474;2022-11-27T13:55:32;5.30;;;2.20;;
27201;SDS011;14717;46.924;15.474;2022-11-27T13:57:59;5.22;;;2.33;;
27201;SDS011;14717;46.924;15.474;2022-11-27T14:00:42;4.38;;;2.05;;
27201;SDS011;14717;46.924;15.474;2022-11-27T14:05:48;8.48;;;2.00;;
27201;SDS011;14717;46.924;15.474;2022-11-27T14:08:29;4.63;;;1.92;;
27201;SDS011;14717;46.924;15.474;2022-11-27T14:10:58;3.45;;;1.90;;
27201;SDS011;14717;46.924;15.474;2022-11-27T14:13:41;2.50;;;1.58;;
27201;SDS011;14717;46.924;15.474;2022-11-27T14:18:58;5.45;;;2.30;;
27201;SDS011;14717;46.924;15.474;2022-11-27T14:24:03;3.72;;;2.28;;
27201;SDS011;14717;46.924;15.474;2022-11-27T14:26:46;4.50;;;2.30;;
27201;SDS011;14717;46.924;15.474;2022-11-27T14:29:12;3.28;;;2.00;;
27201;SDS011;14717;46.924;15.474;2022-11-27T14:31:37;4.80;;;1.90;;
27201;SDS011;14717;46.924;15.474;2022-11-27T14:34:03;8.10;;;3.05;;
27201;SDS011;14717;46.924;15.474;2022-11-27T14:36:29;8.98;;;3.60;;
27201;SDS011;14717;46.924;15.474;2022-11-27T14:38:56;12.30;;;4.00;;
27201;SDS011;14717;46.924;15.474;2022-11-27T14:41:23;14.35;;;5.72;;
27201;SDS011;14717;46.924;15.474;2022-11-27T14:44:00;17.73;;;6.40;;
27201;SDS011;14717;46.924;15.474;2022-11-27T14:46:25;12.63;;;5.70;;
27201;SDS011;14717;46.924;15.474;2022-11-27T14:48:52;17.48;;;6.28;;
27201;SDS011;14717;46.924;15.474;2022-11-27T14:51:20;16.45;;;5.55;;
27201;SDS011;14717;46.924;15.474;2022-11-27T14:53:48;13.38;;;5.32;;
27201;SDS011;14717;46.924;15.474;2022-11-27T14:56:17;7.60;;;3.75;;
27201;SDS011;14717;46.924;15.474;2022-11-27T14:58:46;14.07;;;5.70;;
27201;SDS011;14717;46.924;15.474;2022-11-27T15:01:23;16.10;;;6.88;;
27201;SDS011;14717;46.924;15.474;2022-11-27T15:03:57;16.30;;;6.57;;
27201;SDS011;14717;46.924;15.474;2022-11-27T15:06:43;17.55;;;6.97;;
27201;SDS011;14717;46.924;15.474;2022-11-27T15:09:17;20.70;;;7.47;;
27201;SDS011;14717;46.924;15.474;2022-11-27T15:12:31;21.70;;;7.65;;
27201;SDS011;14717;46.924;15.474;2022-11-27T15:15:07;23.70;;;8.65;;
27201;SDS011;14717;46.924;15.474;2022-11-27T15:17:42;19.90;;;7.32;;
27201;SDS011;14717;46.924;15.474;2022-11-27T15:22:38;16.70;;;6.65;;
27201;SDS011;14717;46.924;15.474;2022-11-27T15:25:27;15.38;;;5.88;;
27201;SDS011;14717;46.924;15.474;2022-11-27T15:30:57;8.43;;;3.15;;
27201;SDS011;14717;46.924;15.474;2022-11-27T15:33:23;5.55;;;3.03;;
27201;SDS011;14717;46.924;15.474;2022-11-27T15:36:36;4.78;;;2.80;;
27201;SDS011;14717;46.924;15.474;2022-11-27T15:38:45;6.03;;;2.58;;
27201;SDS011;14717;46.924;15.474;2022-11-27T15:41:25;6.20;;;2.95;;
27201;SDS011;14717;46.924;15.474;2022-11-27T15:43:53;6.15;;;2.65;;
27201;SDS011;14717;46.924;15.474;2022-11-27T15:46:26;5.93;;;3.03;;
27201;SDS011;14717;46.924;15.474;2022-11-27T15:48:54;7.88;;;3.10;;
27201;SDS011;14717;46.924;15.474;2022-11-27T15:53:46;5.65;;;3.45;;
27201;SDS011;14717;46.924;15.474;2022-11-27T15:56:12;6.63;;;3.25;;
27201;SDS011;14717;46.924;15.474;2022-11-27T15:58:38;8.15;;;3.63;;
27201;SDS011;14717;46.924;15.474;2022-11-27T16:01:05;6.25;;;3.58;;
27201;SDS011;14717;46.924;15.474;2022-11-27T16:03:31;8.05;;;4.57;;
27201;SDS011;14717;46.924;15.474;2022-11-27T16:05:56;10.57;;;6.65;;
27201;SDS011;14717;46.924;15.474;2022-11-27T16:08:27;9.50;;;5.65;;
27201;SDS011;14717;46.924;15.474;2022-11-27T16:10:52;10.90;;;5.78;;
27201;SDS011;14717;46.924;15.474;2022-11-27T16:13:17;9.75;;;6.35;;
27201;SDS011;14717;46.924;15.474;2022-11-27T16:15:43;10.05;;;5.78;;
27201;SDS011;14717;46.924;15.474;2022-11-27T16:18:08;10.80;;;6.03;;
27201;SDS011;14717;46.924;15.474;2022-11-27T16:20:34;12.45;;;6.15;;
27201;SDS011;14717;46.924;15.474;2022-11-27T16:23:00;11.90;;;6.50;;
27201;SDS011;14717;46.924;15.474;2022-11-27T16:25:25;10.77;;;6.50;;
27201;SDS011;14717;46.924;15.474;2022-11-27T16:27:50;12.90;;;5.93;;
27201;SDS011;14717;46.924;15.474;2022-11-27T16:30:16;13.38;;;6.68;;
27201;SDS011;14717;46.924;15.474;2022-11-27T16:32:43;12.85;;;6.55;;
27201;SDS011;14717;46.924;15.474;2022-11-27T16:35:09;13.75;;;6.65;;
27201;SDS011;14717;46.924;15.474;2022-11-27T16:37:34;14.32;;;6.82;;
27201;SDS011;14717;46.924;15.474;2022-11-27T16:40:00;11.27;;;6.30;;
27201;SDS011;14717;46.924;15.474;2022-11-27T16:42:25;12.18;;;6.57;;
27201;SDS011;14717;46.924;15.474;2022-11-27T16:44:50;15.45;;;7.72;;
27201;SDS011;14717;46.924;15.474;2022-11-27T16:47:16;15.13;;;7.40;;
27201;SDS011;14717;46.924;15.474;2022-11-27T16:49:41;16.20;;;7.55;;
27201;SDS011;14717;46.924;15.474;2022-11-27T16:52:07;11.45;;;7.10;;
27201;SDS011;14717;46.924;15.474;2022-11-27T16:54:34;13.60;;;7.20;;
27201;SDS011;14717;46.924;15.474;2022-11-27T16:57:00;14.18;;;7.03;;
27201;SDS011;14717;46.924;15.474;2022-11-27T16:59:25;13.23;;;7.15;;
27201;SDS011;14717;46.924;15.474;2022-11-27T17:01:50;14.73;;;6.60;;
27201;SDS011;14717;46.924;15.474;2022-11-27T17:04:17;12.13;;;6.32;;